createdAt,value
2022-10-06T00:04:41.505Z,86.53
2022-10-06T00:09:44.815Z,86.94
2022-10-06T00:14:46.751Z,86.77
2022-10-06T00:19:48.712Z,87.00
2022-10-06T00:24:51.724Z,87.08
2022-10-06T00:29:53.656Z,86.75
2022-10-06T00:34:55.621Z,86.07
2022-10-06T00:39:59.124Z,86.46
2022-10-06T00:45:04.496Z,85.79
2022-10-06T00:50:07.616Z,85.84
2022-10-06T00:55:11.396Z,85.35
2022-10-06T01:00:14.102Z,84.56
2022-10-06T01:05:22.821Z,84.12
2022-10-06T01:10:26.059Z,84.21
2022-10-06T01:15:28.741Z,84.61
2022-10-06T01:20:31.278Z,84.72
2022-10-06T01:25:35.228Z,84.40
2022-10-06T01:30:42.221Z,84.20
2022-10-06T01:35:48.034Z,83.97
2022-10-06T01:40:52.737Z,83.73
2022-10-06T01:45:55.511Z,84.50
2022-10-06T01:50:57.465Z,85.29
2022-10-06T01:56:00.911Z,86.20
2022-10-06T02:01:05.344Z,86.52
2022-10-06T02:06:08.183Z,87.16
2022-10-06T02:11:12.057Z,87.27
2022-10-06T02:16:14.659Z,87.70
2022-10-06T02:21:18.903Z,87.24
2022-10-06T02:26:22.350Z,87.20
2022-10-06T02:31:24.625Z,87.28
2022-10-06T02:36:26.800Z,87.24
2022-10-06T02:41:30.203Z,86.64
2022-10-06T02:46:32.251Z,86.89
2022-10-06T02:51:34.533Z,86.77
2022-10-06T02:56:37.942Z,86.58
2022-10-06T03:01:40.208Z,85.98
2022-10-06T03:06:41.986Z,85.83
2022-10-06T03:11:46.060Z,84.80
2022-10-06T03:16:48.007Z,84.76
2022-10-06T03:21:50.010Z,85.09
2022-10-06T03:26:53.128Z,84.70
2022-10-06T03:31:58.620Z,83.99
2022-10-06T03:37:00.606Z,83.94
2022-10-06T03:42:04.439Z,85.65
2022-10-06T03:47:06.549Z,86.41
2022-10-06T03:52:08.819Z,85.44
2022-10-06T03:57:12.310Z,84.57
2022-10-06T04:02:14.430Z,83.28
2022-10-06T04:07:16.488Z,81.71
2022-10-06T04:12:19.842Z,80.25
2022-10-06T04:17:21.836Z,76.76
2022-10-06T04:22:23.848Z,75.84
2022-10-06T04:27:27.216Z,75.40
2022-10-06T04:32:28.867Z,74.07
2022-10-06T04:37:31.285Z,73.54
2022-10-06T04:42:35.384Z,75.47
2022-10-06T04:47:37.261Z,74.22
2022-10-06T04:52:39.490Z,72.91
2022-10-06T04:57:42.645Z,72.41
2022-10-06T05:02:44.678Z,71.67
2022-10-06T05:07:47.137Z,71.65
2022-10-06T05:12:50.344Z,71.84
2022-10-06T05:17:53.005Z,71.70
2022-10-06T05:22:54.700Z,70.81
2022-10-06T05:27:58.274Z,70.42
2022-10-06T05:33:00.238Z,70.62
2022-10-06T05:38:01.879Z,70.21
2022-10-06T05:43:04.826Z,70.94
2022-10-06T05:48:06.830Z,71.37
2022-10-06T05:53:08.651Z,71.54
2022-10-06T05:58:24.129Z,71.58
2022-10-06T06:03:33.103Z,72.29
2022-10-06T06:08:38.153Z,73.36
2022-10-06T06:13:45.563Z,74.02
2022-10-06T06:18:53.615Z,75.05
2022-10-06T06:24:03.520Z,75.15
2022-10-06T06:29:12.409Z,75.35
2022-10-06T06:34:21.648Z,75.74
2022-10-06T06:39:26.982Z,75.66
2022-10-06T06:44:37.585Z,75.45
2022-10-06T06:49:42.634Z,75.01
2022-10-06T06:54:54.584Z,73.91
2022-10-06T07:00:01.430Z,72.57
2022-10-06T07:05:06.925Z,73.62
2022-10-06T07:10:21.552Z,73.98
2022-10-06T07:15:27.961Z,73.23
2022-10-06T07:20:47.762Z,72.80
2022-10-06T07:25:57.219Z,73.17
2022-10-06T07:31:13.408Z,72.61
2022-10-06T07:36:17.317Z,71.85
2022-10-06T07:41:20.490Z,71.07
2022-10-06T07:46:24.809Z,69.73
2022-10-06T07:51:27.118Z,68.47
2022-10-06T07:56:29.289Z,66.71
2022-10-06T08:01:32.406Z,66.66
2022-10-06T08:06:34.989Z,65.73
2022-10-06T08:11:37.208Z,65.29
2022-10-06T08:16:41.050Z,63.36
2022-10-06T08:21:43.111Z,62.78
2022-10-06T08:26:45.204Z,63.19
2022-10-06T08:31:48.875Z,62.67
2022-10-06T08:37:08.751Z,60.70
2022-10-06T08:42:18.047Z,60.05
2022-10-06T08:47:23.233Z,60.22
2022-10-06T08:52:40.465Z,61.71
2022-10-06T08:58:02.269Z,61.07
2022-10-06T09:03:06.196Z,60.17
2022-10-06T09:08:22.154Z,58.63
2022-10-06T09:13:28.879Z,57.57
2022-10-06T09:18:56.524Z,58.28
2022-10-06T09:24:05.581Z,59.73
2022-10-06T09:29:07.209Z,59.06
2022-10-06T09:34:23.753Z,59.09
2022-10-06T09:39:28.856Z,59.37
2022-10-06T09:44:34.202Z,56.24
2022-10-06T09:49:37.671Z,47.30
2022-10-06T09:54:39.826Z,44.01
2022-10-06T09:59:44.264Z,39.15
2022-10-06T10:04:51.459Z,47.48
2022-10-06T10:09:55.131Z,45.06
2022-10-06T10:15:00.955Z,43.18
2022-10-06T10:20:19.810Z,34.50
2022-10-06T10:25:39.711Z,32.92
2022-10-06T10:30:51.124Z,30.13
2022-10-06T10:35:56.968Z,36.63
2022-10-06T10:41:02.601Z,34.76
2022-10-06T10:46:11.761Z,32.14
2022-10-06T10:51:20.289Z,30.96
2022-10-06T10:56:26.342Z,34.61
2022-10-06T11:01:37.446Z,34.45
2022-10-06T11:06:54.910Z,38.97
2022-10-06T11:12:17.960Z,40.88
2022-10-06T11:17:33.518Z,41.51
2022-10-06T11:22:43.888Z,43.84
2022-10-06T11:27:54.522Z,44.80
2022-10-06T11:33:09.113Z,43.92
2022-10-06T11:38:17.961Z,44.84
2022-10-06T11:43:30.704Z,44.18
2022-10-06T11:48:32.964Z,44.77
2022-10-06T11:53:41.169Z,43.14
2022-10-06T11:59:28.065Z,43.34
2022-10-06T12:04:30.186Z,43.67
2022-10-06T12:09:53.754Z,45.21
2022-10-06T12:20:32.858Z,45.78
2022-10-06T12:25:41.292Z,44.80
2022-10-06T12:30:56.530Z,43.91
2022-10-06T12:36:02.077Z,43.68
2022-10-06T12:41:10.374Z,42.45
2022-10-06T12:46:20.297Z,42.71
2022-10-06T12:51:30.227Z,42.39
2022-10-06T12:56:38.522Z,42.76
2022-10-06T13:01:41.002Z,43.73
2022-10-06T13:06:49.658Z,42.66
2022-10-06T13:11:53.306Z,43.44
2022-10-06T13:16:58.499Z,43.57
2022-10-06T13:22:02.922Z,42.82
2022-10-06T13:27:07.121Z,42.00
2022-10-06T13:32:17.867Z,42.56
2022-10-06T13:37:20.263Z,42.31
2022-10-06T13:42:30.916Z,42.42
2022-10-06T13:47:32.743Z,43.13
2022-10-06T13:52:39.874Z,43.42
2022-10-06T13:57:45.881Z,42.50
2022-10-06T14:02:49.861Z,43.13
2022-10-06T14:07:52.446Z,43.60
2022-10-06T14:12:56.161Z,44.15
2022-10-06T14:18:00.527Z,43.16
2022-10-06T14:23:02.725Z,42.33
2022-10-06T14:28:05.764Z,42.91
2022-10-06T14:33:08.356Z,42.87
2022-10-06T14:38:10.273Z,43.23
2022-10-06T14:43:13.732Z,43.13
2022-10-06T14:48:15.702Z,43.72
2022-10-06T14:53:17.672Z,44.82
2022-10-06T14:58:21.182Z,44.46
2022-10-06T15:03:23.439Z,45.08
2022-10-06T15:08:26.361Z,45.23
2022-10-06T15:13:29.416Z,45.31
2022-10-06T15:18:31.357Z,46.61
2022-10-06T15:23:33.477Z,47.57
2022-10-06T15:28:36.726Z,47.83
2022-10-06T15:33:38.431Z,47.46
2022-10-06T15:38:40.099Z,48.00
2022-10-06T15:43:43.426Z,49.16
2022-10-06T15:48:45.169Z,48.85
2022-10-06T15:53:47.029Z,50.07
2022-10-06T15:58:50.380Z,51.72
2022-10-06T16:03:52.054Z,52.04
2022-10-06T16:08:54.293Z,52.70
2022-10-06T16:14:00.330Z,53.33
2022-10-06T16:19:02.496Z,54.53
2022-10-06T16:24:04.911Z,55.03
2022-10-06T16:29:08.216Z,56.67
2022-10-06T16:34:10.155Z,57.96
2022-10-06T16:39:14.951Z,59.54
2022-10-06T16:44:19.548Z,62.47
2022-10-06T16:49:21.201Z,63.96
2022-10-06T16:54:23.267Z,64.61
2022-10-06T16:59:26.565Z,65.64
2022-10-06T17:04:28.280Z,67.25
2022-10-06T17:09:30.558Z,69.21
2022-10-06T17:14:33.911Z,70.97
2022-10-06T17:19:36.070Z,72.48
2022-10-06T17:24:37.711Z,73.52
2022-10-06T17:29:40.710Z,74.81
2022-10-06T17:34:42.407Z,75.78
2022-10-06T17:39:47.083Z,76.70
2022-10-06T17:44:50.330Z,77.45
2022-10-06T17:49:52.324Z,78.19
2022-10-06T17:54:54.407Z,78.54
2022-10-06T17:59:57.554Z,79.21
2022-10-06T18:04:59.201Z,79.51
2022-10-06T18:10:01.057Z,80.51
2022-10-06T18:15:04.615Z,81.13
2022-10-06T18:20:06.858Z,81.23
2022-10-06T18:25:08.836Z,81.60
2022-10-06T18:30:12.764Z,82.12
2022-10-06T18:40:36.736Z,82.15
2022-10-06T18:45:40.055Z,82.94
2022-10-06T18:50:41.745Z,83.20
2022-10-06T18:55:44.378Z,83.42
2022-10-06T19:00:47.598Z,84.58
2022-10-06T19:05:52.418Z,84.96
2022-10-06T19:10:54.503Z,84.08
2022-10-06T19:15:58.532Z,85.07
2022-10-06T19:21:00.183Z,84.55
2022-10-06T19:26:02.967Z,86.09
2022-10-06T19:31:13.066Z,85.79
2022-10-06T19:36:15.919Z,85.93
2022-10-06T19:41:17.899Z,86.49
2022-10-06T19:46:21.436Z,86.59
2022-10-06T19:51:24.241Z,86.52
2022-10-06T19:56:26.072Z,87.14
2022-10-06T20:01:29.448Z,87.61
2022-10-06T20:06:31.840Z,87.83
2022-10-06T20:11:34.328Z,88.45
2022-10-06T20:16:38.247Z,88.97
2022-10-06T20:21:42.366Z,88.10
2022-10-06T20:26:46.094Z,88.68
2022-10-06T20:31:51.148Z,88.74
2022-10-06T20:36:56.156Z,89.80
2022-10-06T20:41:58.333Z,89.26
2022-10-06T20:47:01.953Z,89.51
2022-10-06T20:52:04.824Z,89.78
2022-10-06T20:57:09.547Z,89.86
2022-10-06T21:02:13.013Z,90.80
2022-10-06T21:07:14.718Z,90.76
2022-10-06T21:12:16.713Z,90.32
2022-10-06T21:17:20.128Z,90.96
2022-10-06T21:22:22.284Z,91.15
2022-10-06T21:27:24.288Z,91.21
2022-10-06T21:32:27.908Z,91.27
2022-10-06T21:37:29.637Z,91.23
2022-10-06T21:42:31.382Z,91.49
2022-10-06T21:47:35.016Z,91.48
2022-10-06T21:52:37.321Z,91.86
2022-10-06T21:57:39.303Z,91.77
2022-10-06T22:02:42.474Z,92.09
2022-10-06T22:07:46.679Z,91.84
2022-10-06T22:12:49.241Z,92.06
2022-10-06T22:17:52.625Z,91.85
2022-10-06T22:22:54.307Z,91.57
2022-10-06T22:27:56.155Z,92.44
2022-10-06T22:32:59.641Z,91.85
2022-10-06T22:38:01.783Z,92.17
2022-10-06T22:43:03.934Z,92.50
2022-10-06T22:48:07.326Z,92.61
2022-10-06T22:53:10.400Z,92.54
2022-10-06T22:58:13.349Z,93.14
2022-10-06T23:03:17.327Z,92.42
2022-10-06T23:08:19.396Z,93.27
2022-10-06T23:13:21.989Z,92.57
2022-10-06T23:18:25.474Z,92.71
2022-10-06T23:23:27.163Z,92.25
2022-10-06T23:28:29.364Z,92.37
2022-10-06T23:33:32.864Z,92.40
2022-10-06T23:38:35.736Z,92.20
2022-10-06T23:43:37.781Z,92.31
2022-10-06T23:48:41.255Z,92.54
2022-10-06T23:53:44.325Z,92.36
2022-10-06T23:58:46.960Z,93.09
